Time;durP1;ratioP1;P1;durP2;ratioP2;P2;SDS_P1;SDS_P2;PMS_P1;PMS_P2;Temp;Humidity;BMP_temperature;BMP_pressure;BME280_temperature;BME280_humidity;BME280_pressure;Samples;Min_cycle;Max_cycle;Signal;HPM_P1;HPM_P2
2022/11/30 00:02:10;;;;;;;70.38;33.47;;;5.90;58.90;;;;;;7391605;19;20019;-69
2022/11/30 00:04:40;;;;;;;70.35;33.60;;;5.90;59.00;;;;;;7387260;19;20035;-69
2022/11/30 00:07:10;;;;;;;75.93;32.88;;;5.90;59.00;;;;;;7393694;19;20017;-69
2022/11/30 00:09:40;;;;;;;66.90;31.63;;;5.90;58.90;;;;;;7387263;19;20019;-69
2022/11/30 00:12:12;;;;;;;69.85;34.03;;;5.90;58.90;;;;;;7391586;19;20078;-70
2022/11/30 00:14:42;;;;;;;72.38;32.92;;;5.90;59.10;;;;;;7389449;19;20010;-69
2022/11/30 00:17:12;;;;;;;64.55;31.38;;;5.90;59.00;;;;;;7391826;19;20014;-69
2022/11/30 00:19:42;;;;;;;67.30;31.67;;;5.90;59.10;;;;;;7386694;19;20022;-69
2022/11/30 00:22:11;;;;;;;72.25;33.00;;;5.90;59.50;;;;;;7390954;19;20021;-69
2022/11/30 00:24:41;;;;;;;71.32;33.33;;;5.90;59.50;;;;;;7389124;19;20014;-68
2022/11/30 00:27:16;;;;;;;70.65;33.78;;;5.80;59.70;;;;;;7354284;19;20014;-70
2022/11/30 00:29:46;;;;;;;73.20;34.80;;;5.80;59.80;;;;;;7384860;19;20014;-69
2022/11/30 00:32:16;;;;;;;71.18;34.00;;;5.90;60.70;;;;;;7365870;19;20014;-70
2022/11/30 00:34:45;;;;;;;78.72;33.78;;;5.80;60.50;;;;;;7364679;19;20018;-69
2022/11/30 00:37:16;;;;;;;76.40;35.30;;;5.90;60.70;;;;;;7369464;19;20369;-69
2022/11/30 00:39:46;;;;;;;81.93;35.25;;;5.80;60.80;;;;;;7383596;19;20030;-69
2022/11/30 00:42:18;;;;;;;76.38;34.80;;;5.80;61.20;;;;;;7366157;19;20010;-69
2022/11/30 00:44:48;;;;;;;81.60;35.28;;;5.80;61.30;;;;;;7366526;19;20542;-69
2022/11/30 00:47:18;;;;;;;75.22;36.15;;;5.80;61.30;;;;;;7368271;19;20537;-70
2022/11/30 00:49:48;;;;;;;77.40;35.70;;;5.80;61.40;;;;;;7362438;19;20488;-69
2022/11/30 00:52:17;;;;;;;85.50;38.17;;;5.80;61.40;;;;;;7365743;19;20111;-69
2022/11/30 00:54:47;;;;;;;71.97;34.25;;;5.80;61.70;;;;;;7387124;19;20555;-69
2022/11/30 00:57:20;;;;;;;82.32;35.03;;;5.80;62.00;;;;;;7367005;19;20406;-68
2022/11/30 00:59:50;;;;;;;70.68;33.55;;;5.80;61.70;;;;;;7363197;19;20010;-70
2022/11/30 01:02:20;;;;;;;81.43;36.22;;;5.80;61.60;;;;;;7364405;19;20083;-69
2022/11/30 01:04:50;;;;;;;79.05;35.53;;;5.80;62.20;;;;;;7365480;19;20011;-69
2022/11/30 01:07:19;;;;;;;75.13;34.08;;;5.90;62.50;;;;;;7367381;19;20018;-68
2022/11/30 01:09:49;;;;;;;75.22;35.13;;;5.80;62.10;;;;;;7381197;19;20202;-68
2022/11/30 01:12:22;;;;;;;78.57;35.97;;;5.80;62.30;;;;;;7365237;19;20006;-69
2022/11/30 01:14:52;;;;;;;85.60;35.40;;;5.80;62.40;;;;;;7366495;19;20014;-69
2022/11/30 01:17:21;;;;;;;80.88;35.60;;;5.80;62.50;;;;;;7364651;19;20010;-68
2022/11/30 01:19:51;;;;;;;87.82;36.50;;;5.80;62.60;;;;;;7362016;19;20009;-69
2022/11/30 01:22:21;;;;;;;81.88;35.80;;;5.80;62.70;;;;;;7363331;19;20470;-67
2022/11/30 01:24:51;;;;;;;79.32;33.80;;;5.80;62.90;;;;;;7387604;19;20098;-70
2022/11/30 01:27:23;;;;;;;76.85;35.25;;;5.80;62.90;;;;;;7364706;19;20505;-68
2022/11/30 01:29:53;;;;;;;72.85;32.63;;;5.70;62.80;;;;;;7381913;19;20006;-68
2022/11/30 01:32:23;;;;;;;77.13;35.08;;;5.70;62.80;;;;;;7386497;19;20019;-68
2022/11/30 01:34:53;;;;;;;82.13;34.50;;;5.70;62.80;;;;;;7389815;19;20082;-68
2022/11/30 01:37:22;;;;;;;68.35;33.45;;;5.70;62.80;;;;;;7390270;19;20014;-69
2022/11/30 01:39:52;;;;;;;69.00;32.60;;;5.70;62.80;;;;;;7381338;19;20025;-70
2022/11/30 01:42:25;;;;;;;78.57;33.63;;;5.70;62.80;;;;;;7386882;19;20018;-68
2022/11/30 01:44:57;;;;;;;68.68;32.70;;;5.70;62.80;;;;;;7387025;19;20035;-68
2022/11/30 01:47:33;;;;;;;72.43;33.30;;;5.70;62.80;;;;;;7390800;19;20007;-68
2022/11/30 01:50:07;;;;;;;77.00;34.13;;;5.70;62.80;;;;;;7382875;19;20014;-68
2022/11/30 01:52:40;;;;;;;79.60;34.10;;;5.70;62.80;;;;;;7385107;19;20745;-67
2022/11/30 01:55:17;;;;;;;75.28;33.55;;;5.70;62.80;;;;;;7388962;19;20090;-68
2022/11/30 01:57:53;;;;;;;68.53;34.72;;;5.70;62.90;;;;;;7390325;19;20035;-68
2022/11/30 02:00:23;;;;;;;80.32;37.25;;;5.70;62.90;;;;;;7381525;19;20111;-68
2022/11/30 02:03:01;;;;;;;84.03;36.85;;;5.70;62.80;;;;;;7385875;19;20510;-68
2022/11/30 02:05:31;;;;;;;83.35;35.17;;;5.70;62.90;;;;;;7388330;19;20584;-68
2022/11/30 02:08:02;;;;;;;69.00;33.60;;;5.70;62.90;;;;;;7387891;19;20093;-68
2022/11/30 02:10:34;;;;;;;76.35;35.03;;;5.70;62.90;;;;;;7380653;19;20014;-68
2022/11/30 02:13:25;;;;;;;73.53;35.22;;;5.70;62.90;;;;;;7382618;19;20031;-68
2022/11/30 02:16:04;;;;;;;76.45;33.10;;;5.70;63.00;;;;;;7387465;19;20074;-69
2022/11/30 02:18:45;;;;;;;79.38;35.45;;;5.70;63.00;;;;;;7386503;19;20677;-69
2022/11/30 02:21:18;;;;;;;67.05;32.13;;;5.70;63.00;;;;;;7384546;19;20107;-70
2022/11/30 02:24:21;;;;;;;73.25;33.75;;;5.70;63.10;;;;;;7384824;19;20031;-70
2022/11/30 02:27:01;;;;;;;76.18;33.97;;;5.70;63.10;;;;;;7389095;19;20018;-70
2022/11/30 02:29:37;;;;;;;74.40;34.95;;;5.70;63.10;;;;;;7388139;19;20492;-70
2022/11/30 02:32:11;;;;;;;70.13;33.45;;;5.70;63.40;;;;;;7389614;19;20014;-70
2022/11/30 02:34:44;;;;;;;72.85;33.13;;;5.70;63.40;;;;;;7390749;19;20035;-70
2022/11/30 02:37:17;;;;;;;76.43;33.92;;;5.70;63.30;;;;;;7395629;19;20053;-70
2022/11/30 02:39:47;;;;;;;72.85;33.75;;;5.70;63.50;;;;;;7384428;19;20380;-70
2022/11/30 02:42:17;;;;;;;70.10;32.75;;;5.70;63.30;;;;;;7392589;19;20090;-69
2022/11/30 02:44:53;;;;;;;78.13;32.80;;;5.70;63.40;;;;;;7392237;19;20461;-69
2022/11/30 02:47:27;;;;;;;67.97;33.53;;;5.70;63.30;;;;;;7391195;19;20094;-69
2022/11/30 02:50:02;;;;;;;70.43;32.67;;;5.70;63.40;;;;;;7387329;19;20035;-70
2022/11/30 02:52:33;;;;;;;;;;;5.70;63.50;;;;;;7390384;19;20021;-69
2022/11/30 02:55:05;;;;;;;64.07;31.35;;;5.60;63.20;;;;;;7392913;19;20592;-70
2022/11/30 02:57:35;;;;;;;70.13;33.10;;;5.60;63.40;;;;;;7394304;19;20033;-69
2022/11/30 03:00:10;;;;;;;69.97;31.52;;;5.60;63.60;;;;;;7383905;19;20024;-69
2022/11/30 03:02:41;;;;;;;71.97;33.38;;;5.60;63.60;;;;;;7391346;19;20513;-71
2022/11/30 03:05:11;;;;;;;65.22;31.65;;;5.70;63.80;;;;;;7394689;19;20034;-70
2022/11/30 03:07:41;;;;;;;70.00;32.47;;;5.70;63.80;;;;;;7395040;19;20470;-70
2022/11/30 03:10:12;;;;;;;74.25;32.45;;;5.70;63.80;;;;;;7386013;19;20014;-68
2022/11/30 03:12:42;;;;;;;62.28;30.17;;;5.60;63.80;;;;;;7391830;19;20015;-69
2022/11/30 03:15:15;;;;;;;64.28;31.35;;;5.60;63.70;;;;;;7394642;19;20469;-70
2022/11/30 03:17:45;;;;;;;71.20;33.40;;;5.60;63.80;;;;;;7395086;19;20031;-70
2022/11/30 03:20:15;;;;;;;63.72;31.30;;;5.60;63.80;;;;;;7386325;19;20018;-70
2022/11/30 03:22:45;;;;;;;65.38;31.25;;;5.60;63.90;;;;;;7391100;19;20446;-69
2022/11/30 03:25:15;;;;;;;72.47;32.60;;;5.60;63.80;;;;;;7394044;19;20490;-70
2022/11/30 03:27:44;;;;;;;64.45;31.58;;;5.60;63.90;;;;;;7394464;19;20009;-70
2022/11/30 03:30:17;;;;;;;59.97;30.77;;;5.60;63.80;;;;;;7384636;19;20010;-70
2022/11/30 03:32:47;;;;;;;68.53;30.95;;;5.60;63.90;;;;;;7389668;19;20010;-69
2022/11/30 03:35:17;;;;;;;62.42;29.55;;;5.60;64.00;;;;;;7393866;19;20010;-70
2022/11/30 03:37:48;;;;;;;63.95;30.42;;;5.60;64.00;;;;;;7394543;19;20010;-70
2022/11/30 03:40:18;;;;;;;66.68;31.02;;;5.60;64.60;;;;;;7382596;19;20090;-70
2022/11/30 03:42:48;;;;;;;54.78;29.85;;;5.60;64.00;;;;;;7390344;19;20010;-70
2022/11/30 03:45:20;;;;;;;62.88;29.88;;;5.50;63.60;;;;;;7393354;19;20525;-69
2022/11/30 03:47:50;;;;;;;61.65;29.85;;;5.60;63.90;;;;;;7394231;19;20010;-69
2022/11/30 03:50:20;;;;;;;54.83;27.63;;;5.60;64.00;;;;;;7385383;19;20025;-69
2022/11/30 03:52:50;;;;;;;55.33;29.27;;;5.60;64.00;;;;;;7388182;19;20064;-69
2022/11/30 03:55:20;;;;;;;67.22;30.55;;;5.60;64.00;;;;;;7391801;19;20017;-70
2022/11/30 03:57:50;;;;;;;56.22;28.02;;;5.60;64.20;;;;;;7392733;19;20017;-70
2022/11/30 04:00:23;;;;;;;56.40;28.67;;;5.60;64.10;;;;;;7383130;19;20010;-70
2022/11/30 04:02:53;;;;;;;60.35;30.10;;;5.60;64.00;;;;;;7390670;19;20007;-69
2022/11/30 04:05:23;;;;;;;55.65;28.02;;;5.60;64.20;;;;;;7393051;19;20085;-70
2022/11/30 04:07:53;;;;;;;57.53;28.40;;;5.60;64.00;;;;;;7392229;19;20011;-69
2022/11/30 04:10:23;;;;;;;57.22;28.58;;;5.60;64.10;;;;;;7384786;19;20014;-70
2022/11/30 04:12:53;;;;;;;63.50;29.63;;;5.60;64.20;;;;;;7388739;19;20090;-69
2022/11/30 04:15:25;;;;;;;57.25;29.27;;;5.60;64.00;;;;;;7390410;19;20057;-70
2022/11/30 04:17:55;;;;;;;61.25;29.15;;;5.60;64.10;;;;;;7392077;19;20010;-70
2022/11/30 04:20:25;;;;;;;58.80;28.92;;;5.60;64.20;;;;;;7384042;19;20463;-70
2022/11/30 04:22:55;;;;;;;52.67;27.30;;;5.50;64.00;;;;;;7389132;19;20017;-70
2022/11/30 04:25:25;;;;;;;52.97;26.67;;;5.60;64.40;;;;;;7391583;19;20017;-70
2022/11/30 04:27:55;;;;;;;54.70;27.40;;;5.60;64.30;;;;;;7390315;19;20466;-70
2022/11/30 04:30:27;;;;;;;58.33;27.70;;;5.50;64.10;;;;;;7383909;19;20010;-70
2022/11/30 04:32:57;;;;;;;54.50;26.35;;;5.60;64.40;;;;;;7387296;19;20011;-70
2022/11/30 04:35:27;;;;;;;59.13;27.70;;;5.60;64.30;;;;;;7392087;19;20006;-70
2022/11/30 04:37:57;;;;;;;50.72;27.25;;;5.60;64.30;;;;;;7391319;19;20011;-70
2022/11/30 04:40:27;;;;;;;56.42;27.83;;;5.50;64.20;;;;;;7383626;19;20482;-70
2022/11/30 04:42:56;;;;;;;60.28;27.65;;;5.50;64.20;;;;;;7388851;19;20028;-70
2022/11/30 04:45:29;;;;;;;51.22;26.75;;;5.50;64.30;;;;;;7390816;19;20039;-70
2022/11/30 04:48:04;;;;;;;53.35;26.17;;;5.50;64.20;;;;;;7391641;19;20017;-70
2022/11/30 04:50:34;;;;;;;60.58;27.83;;;5.50;64.40;;;;;;7384917;19;20018;-69
2022/11/30 04:53:04;;;;;;;59.92;27.98;;;5.50;64.50;;;;;;7386913;19;20082;-70
2022/11/30 04:55:35;;;;;;;64.65;28.45;;;5.50;64.80;;;;;;7391046;19;20014;-70
2022/11/30 04:58:05;;;;;;;58.70;28.50;;;5.50;64.90;;;;;;7391293;19;20014;-70
2022/11/30 05:00:39;;;;;;;56.72;28.00;;;5.50;64.90;;;;;;7382835;19;20789;-70
2022/11/30 05:03:09;;;;;;;53.60;27.25;;;5.60;65.00;;;;;;7388768;19;20405;-69
2022/11/30 05:05:39;;;;;;;51.92;25.67;;;5.50;64.90;;;;;;7390347;19;20006;-70
2022/11/30 05:08:09;;;;;;;56.22;27.85;;;5.50;64.80;;;;;;7389718;19;20014;-69
2022/11/30 05:10:38;;;;;;;57.45;26.90;;;5.50;64.90;;;;;;7384738;19;20017;-70
2022/11/30 05:13:09;;;;;;;63.20;29.25;;;5.60;65.00;;;;;;7387033;19;20038;-70
2022/11/30 05:15:41;;;;;;;59.63;27.60;;;5.60;65.00;;;;;;7388726;19;20129;-70
2022/11/30 05:18:11;;;;;;;56.53;27.45;;;5.60;65.00;;;;;;7390490;19;20020;-70
2022/11/30 05:20:41;;;;;;;59.72;27.00;;;5.60;65.00;;;;;;7383725;19;20029;-70
2022/11/30 05:23:11;;;;;;;57.60;27.02;;;5.50;64.90;;;;;;7387750;19;20085;-70
2022/11/30 05:25:40;;;;;;;57.65;26.73;;;5.50;65.00;;;;;;7390635;19;20333;-70
2022/11/30 05:28:10;;;;;;;57.70;27.85;;;5.50;64.90;;;;;;7390089;19;20040;-69
2022/11/30 05:30:44;;;;;;;55.40;27.10;;;5.50;65.00;;;;;;7383688;19;20015;-70
2022/11/30 05:33:14;;;;;;;57.37;27.47;;;5.50;65.00;;;;;;7384121;19;20350;-70
2022/11/30 05:35:45;;;;;;;49.45;25.95;;;5.50;65.00;;;;;;7389640;19;20270;-70
2022/11/30 05:38:15;;;;;;;54.03;26.75;;;5.60;65.10;;;;;;7390004;19;20085;-70
2022/11/30 05:40:44;;;;;;;52.58;25.70;;;5.60;65.10;;;;;;7384101;19;20451;-70
2022/11/30 05:43:14;;;;;;;52.30;24.90;;;5.60;65.20;;;;;;7385657;19;20740;-70
2022/11/30 05:45:47;;;;;;;51.42;24.95;;;5.50;64.80;;;;;;7389078;19;20010;-70
2022/11/30 05:48:17;;;;;;;48.00;23.58;;;5.50;65.00;;;;;;7388620;19;20014;-69
2022/11/30 05:50:47;;;;;;;55.65;26.02;;;5.50;65.10;;;;;;7383742;19;20081;-70
2022/11/30 05:53:16;;;;;;;56.13;25.67;;;5.50;64.80;;;;;;7385799;19;20006;-70
2022/11/30 05:55:47;;;;;;;46.70;24.45;;;5.50;65.00;;;;;;7387604;19;20015;-69
2022/11/30 05:58:16;;;;;;;49.33;24.98;;;5.50;65.70;;;;;;7388175;19;20085;-70
2022/11/30 06:00:50;;;;;;;49.13;24.20;;;5.50;65.00;;;;;;7384152;19;20018;-70
2022/11/30 06:03:20;;;;;;;50.33;24.00;;;5.50;65.00;;;;;;7388571;19;20060;-70
2022/11/30 06:05:52;;;;;;;48.38;23.60;;;5.60;65.10;;;;;;7396181;19;20027;-69
2022/11/30 06:08:21;;;;;;;46.35;24.75;;;5.60;65.20;;;;;;7395559;19;20010;-70
2022/11/30 06:10:52;;;;;;;48.45;25.77;;;5.70;65.40;;;;;;7389938;19;20136;-69
2022/11/30 06:13:22;;;;;;;46.45;24.08;;;5.60;65.00;;;;;;7391159;19;20013;-69
2022/11/30 06:16:03;;;;;;;49.22;22.48;;;5.60;64.90;;;;;;7394682;19;20015;-69
2022/11/30 06:18:34;;;;;;;42.13;21.90;;;5.70;65.10;;;;;;7394341;19;20046;-69
2022/11/30 06:21:05;;;;;;;40.03;22.77;;;5.60;65.00;;;;;;7387894;19;20010;-70
2022/11/30 06:23:35;;;;;;;43.83;23.55;;;5.70;65.10;;;;;;7392944;19;20493;-70
2022/11/30 06:26:06;;;;;;;40.60;22.83;;;5.60;64.90;;;;;;7395641;19;20006;-69
2022/11/30 06:28:36;;;;;;;39.85;21.98;;;5.70;65.20;;;;;;7393764;19;20006;-69
2022/11/30 06:31:10;;;;;;;44.75;22.65;;;5.60;64.90;;;;;;7390422;19;20626;-70
2022/11/30 06:33:40;;;;;;;42.88;23.08;;;5.60;64.90;;;;;;7389863;19;20007;-70
2022/11/30 06:36:11;;;;;;;41.97;21.27;;;5.60;65.00;;;;;;7394660;19;20040;-70
2022/11/30 06:38:41;;;;;;;43.10;24.13;;;5.60;65.10;;;;;;7393459;19;20601;-68
2022/11/30 06:41:11;;;;;;;40.97;21.88;;;5.60;65.10;;;;;;7388198;19;20078;-71
2022/11/30 06:43:41;;;;;;;43.72;23.15;;;5.70;65.20;;;;;;7392481;19;20014;-70
2022/11/30 06:46:14;;;;;;;46.83;22.58;;;5.70;65.10;;;;;;7394780;19;20017;-69
2022/11/30 06:48:50;;;;;;;44.22;21.60;;;5.60;64.80;;;;;;7391651;19;20011;-69
2022/11/30 06:51:20;;;;;;;43.85;22.55;;;5.70;65.10;;;;;;7388641;19;20022;-70
2022/11/30 06:53:50;;;;;;;41.50;20.63;;;5.70;64.90;;;;;;7389454;19;20010;-69
2022/11/30 06:56:20;;;;;;;41.25;22.55;;;5.70;64.90;;;;;;7394830;19;20066;-70
2022/11/30 06:58:53;;;;;;;46.13;23.13;;;5.60;64.80;;;;;;7390261;19;20367;-70
2022/11/30 07:01:25;;;;;;;45.53;23.10;;;5.60;64.80;;;;;;7389490;19;20015;-70
2022/11/30 07:03:55;;;;;;;41.78;21.40;;;5.60;64.90;;;;;;7392081;19;20588;-70
2022/11/30 07:06:25;;;;;;;46.83;22.92;;;5.60;64.80;;;;;;7393030;19;20485;-70
2022/11/30 07:08:55;;;;;;;40.47;21.50;;;5.60;64.90;;;;;;7392122;19;20692;-70
2022/11/30 07:11:25;;;;;;;43.00;22.15;;;5.60;64.60;;;;;;7388653;19;20010;-71
2022/11/30 07:13:54;;;;;;;39.33;21.67;;;5.60;64.70;;;;;;7389711;19;20030;-69
2022/11/30 07:16:27;;;;;;;38.30;20.88;;;5.70;64.80;;;;;;7393212;19;20343;-71
2022/11/30 07:18:57;;;;;;;42.28;21.35;;;5.60;64.70;;;;;;7392012;19;20010;-70
2022/11/30 07:21:27;;;;;;;41.00;19.83;;;5.80;65.20;;;;;;7385446;19;20015;-71
2022/11/30 07:26:39;;;;;;;36.78;20.42;;;5.80;65.10;;;;;;7393308;19;20470;-70
2022/11/30 07:29:09;;;;;;;33.90;18.92;;;5.70;64.80;;;;;;7390849;19;20014;-70
2022/11/30 07:31:41;;;;;;;35.78;20.33;;;5.80;64.90;;;;;;7388588;19;20578;-70
2022/11/30 07:34:12;;;;;;;33.03;19.48;;;5.80;64.90;;;;;;7388684;19;20049;-70
2022/11/30 07:36:42;;;;;;;38.65;20.58;;;5.80;64.70;;;;;;7391172;19;20409;-70
2022/11/30 07:39:12;;;;;;;36.33;19.90;;;5.80;64.70;;;;;;7392252;19;20288;-70
2022/11/30 07:41:42;;;;;;;36.67;19.05;;;5.80;64.70;;;;;;7390109;19;20015;-70
2022/11/30 07:44:13;;;;;;;34.95;18.50;;;5.80;64.40;;;;;;7391361;19;20010;-71
2022/11/30 07:46:45;;;;;;;34.95;19.73;;;5.90;64.50;;;;;;7391986;19;20007;-70
2022/11/30 07:49:15;;;;;;;31.10;17.70;;;5.90;64.60;;;;;;7389669;19;20398;-70
2022/11/30 07:51:45;;;;;;;31.80;17.95;;;5.90;64.50;;;;;;7389704;19;20021;-70
2022/11/30 07:54:15;;;;;;;27.08;16.60;;;5.90;64.20;;;;;;7389257;19;20118;-70
2022/11/30 07:56:45;;;;;;;31.27;17.52;;;5.80;63.80;;;;;;7391018;19;20002;-70
2022/11/30 07:59:15;;;;;;;33.85;17.15;;;5.90;63.80;;;;;;7389600;19;20010;-69
2022/11/30 08:01:47;;;;;;;32.40;18.40;;;5.90;63.20;;;;;;7389000;19;20019;-70
2022/11/30 08:04:17;;;;;;;36.45;19.02;;;5.90;63.60;;;;;;7389325;19;20014;-71
2022/11/30 08:06:47;;;;;;;31.65;17.67;;;6.00;63.10;;;;;;7392575;19;20002;-69
2022/11/30 08:09:17;;;;;;;31.85;17.02;;;6.10;63.20;;;;;;7388591;19;20006;-70
2022/11/30 08:11:50;;;;;;;28.25;16.13;;;6.00;63.00;;;;;;7389615;19;20023;-71
2022/11/30 08:14:20;;;;;;;32.80;18.02;;;6.00;63.00;;;;;;7388827;19;20006;-70
2022/11/30 08:16:53;;;;;;;31.90;18.08;;;6.10;63.10;;;;;;7392583;19;20010;-71
2022/11/30 08:19:23;;;;;;;28.90;17.33;;;6.20;63.00;;;;;;7385451;19;20011;-71
2022/11/30 08:21:53;;;;;;;29.58;17.52;;;6.20;62.60;;;;;;7388124;19;20502;-69
2022/11/30 08:24:23;;;;;;;29.95;16.05;;;6.30;62.20;;;;;;7390124;19;20006;-70
2022/11/30 08:26:53;;;;;;;33.60;17.70;;;6.20;61.30;;;;;;7389896;19;20021;-70
2022/11/30 08:29:23;;;;;;;31.58;15.88;;;6.30;60.50;;;;;;7386247;19;20010;-70
2022/11/30 08:31:56;;;;;;;28.23;15.65;;;6.40;59.40;;;;;;7390752;19;20014;-70
2022/11/30 08:34:26;;;;;;;31.92;18.08;;;6.60;59.10;;;;;;7384687;19;20086;-70
2022/11/30 08:36:56;;;;;;;29.98;16.30;;;6.80;57.70;;;;;;7390151;19;20023;-70
2022/11/30 08:39:27;;;;;;;27.75;16.67;;;6.80;55.00;;;;;;7383280;19;20014;-70
2022/11/30 08:41:57;;;;;;;27.13;16.83;;;6.80;53.50;;;;;;7387444;19;20026;-71
2022/11/30 08:44:27;;;;;;;26.35;16.02;;;6.80;50.80;;;;;;7386149;19;20529;-70
2022/11/30 08:46:59;;;;;;;29.30;16.75;;;7.00;50.70;;;;;;7386392;19;20082;-70
2022/11/30 08:49:29;;;;;;;29.35;18.13;;;7.00;47.90;;;;;;7382833;19;20619;-70
2022/11/30 08:51:59;;;;;;;29.17;16.83;;;6.90;47.90;;;;;;7387409;19;20411;-70
2022/11/30 08:54:48;;;;;;;42.08;23.95;;;6.90;45.80;;;;;;7386827;19;20129;-71
2022/11/30 08:57:20;;;;;;;26.67;16.00;;;7.20;46.40;;;;;;7387981;19;20010;-70
2022/11/30 08:59:50;;;;;;;29.73;16.73;;;7.10;43.20;;;;;;7382578;19;20640;-71
2022/11/30 09:02:22;;;;;;;24.95;15.73;;;7.00;42.10;;;;;;7387664;19;20078;-70
2022/11/30 09:04:52;;;;;;;32.70;17.27;;;6.90;39.70;;;;;;7389096;19;20482;-71
2022/11/30 09:07:22;;;;;;;29.98;17.15;;;7.00;39.70;;;;;;7388942;19;20031;-71
2022/11/30 09:09:52;;;;;;;27.85;17.83;;;7.10;39.80;;;;;;7382844;19;20015;-70
2022/11/30 09:12:22;;;;;;;29.80;16.08;;;7.00;38.40;;;;;;7384745;19;20082;-70
2022/11/30 09:15:00;;;;;;;27.25;15.93;;;6.90;37.20;;;;;;7388253;19;20546;-70
2022/11/30 09:17:33;;;;;;;28.52;17.73;;;6.90;37.20;;;;;;7387773;19;20466;-71
2022/11/30 09:20:03;;;;;;;28.70;19.45;;;6.90;38.40;;;;;;7380101;19;20018;-71
2022/11/30 09:22:33;;;;;;;30.73;18.13;;;7.00;38.70;;;;;;7385259;19;20081;-71
2022/11/30 09:25:03;;;;;;;25.98;15.73;;;6.90;37.60;;;;;;7387912;19;20014;-70
2022/11/30 09:27:34;;;;;;;30.52;17.50;;;7.00;36.60;;;;;;7388312;19;20039;-70
2022/11/30 09:30:03;;;;;;;29.67;17.48;;;7.10;36.50;;;;;;7381603;19;20025;-70
2022/11/30 09:32:36;;;;;;;27.80;16.15;;;7.10;35.30;;;;;;7384768;19;20017;-70
2022/11/30 09:35:07;;;;;;;27.65;16.75;;;7.00;33.80;;;;;;7387138;19;20086;-70
2022/11/30 09:37:41;;;;;;;28.40;17.63;;;6.90;31.90;;;;;;7383828;19;20101;-71
2022/11/30 09:40:14;;;;;;;28.30;17.35;;;7.00;31.20;;;;;;7377332;19;20017;-71
2022/11/30 09:42:53;;;;;;;27.77;15.60;;;7.10;31.10;;;;;;7385157;19;20018;-70
2022/11/30 09:45:28;;;;;;;24.52;15.27;;;7.20;29.00;;;;;;7388474;19;20021;-70
2022/11/30 09:48:20;;;;;;;25.75;15.45;;;7.10;25.30;;;;;;7386365;19;20025;-71
2022/11/30 09:50:51;;;;;;;29.25;16.63;;;7.10;26.00;;;;;;7382946;19;20107;-70
2022/11/30 09:53:28;;;;;;;26.10;15.50;;;7.20;22.90;;;;;;7385026;19;20088;-70
2022/11/30 09:56:00;;;;;;;27.05;15.57;;;7.20;21.00;;;;;;7386905;19;20482;-69
2022/11/30 09:58:41;;;;;;;25.92;14.75;;;7.00;19.80;;;;;;7384482;19;20346;-71
2022/11/30 10:01:17;;;;;;;24.58;14.93;;;6.90;20.50;;;;;;7383039;19;20090;-70
2022/11/30 10:03:50;;;;;;;25.70;14.63;;;7.00;20.90;;;;;;7384459;19;20123;-71
2022/11/30 10:06:29;;;;;;;25.95;15.13;;;7.10;21.40;;;;;;7386122;19;20024;-70
2022/11/30 10:09:24;;;;;;;25.40;14.77;;;7.00;20.90;;;;;;7382908;19;20418;-70
2022/11/30 10:12:01;;;;;;;25.80;15.02;;;7.10;23.30;;;;;;7386136;19;20021;-70
2022/11/30 10:14:59;;;;;;;25.15;14.90;;;7.00;20.90;;;;;;7383427;19;20025;-69
2022/11/30 10:17:39;;;;;;;27.35;13.65;;;7.00;22.50;;;;;;7389452;19;20038;-69
2022/11/30 10:20:36;;;;;;;24.15;13.60;;;7.00;20.90;;;;;;7380982;19;20011;-70
2022/11/30 10:23:19;;;;;;;29.58;15.75;;;6.90;19.80;;;;;;7384467;19;20010;-70
2022/11/30 10:25:57;;;;;;;27.67;15.85;;;7.10;22.60;;;;;;7384696;19;20125;-70
2022/11/30 10:28:38;;;;;;;28.70;16.17;;;7.10;25.20;;;;;;7384851;19;20010;-70
2022/11/30 10:31:18;;;;;;;28.13;16.13;;;7.10;26.80;;;;;;7380990;19;20074;-70
2022/11/30 10:33:51;;;;;;;31.45;18.05;;;7.10;27.70;;;;;;7383610;19;20021;-70
2022/11/30 10:36:29;;;;;;;32.97;18.10;;;7.10;27.90;;;;;;7382413;19;20024;-70
2022/11/30 10:39:03;;;;;;;29.45;16.55;;;7.10;28.00;;;;;;7384041;19;20023;-70
2022/11/30 10:41:36;;;;;;;29.10;16.80;;;7.20;27.70;;;;;;7381670;19;20073;-69
2022/11/30 10:44:13;;;;;;;28.75;17.00;;;7.20;26.40;;;;;;7383933;19;20007;-69
2022/11/30 10:46:48;;;;;;;30.67;16.92;;;7.10;26.10;;;;;;7385553;19;20013;-69
2022/11/30 10:49:22;;;;;;;28.45;16.35;;;7.10;26.50;;;;;;7384573;19;20480;-69
2022/11/30 10:52:00;;;;;;;29.02;16.95;;;7.00;26.00;;;;;;7391431;19;20108;-69
2022/11/30 10:54:32;;;;;;;25.48;15.75;;;7.10;26.70;;;;;;7391317;19;20030;-69
2022/11/30 10:57:04;;;;;;;28.30;16.45;;;7.10;25.70;;;;;;7390509;19;20032;-69
2022/11/30 10:59:42;;;;;;;29.80;17.00;;;7.20;26.10;;;;;;7386124;19;20514;-69
2022/11/30 11:02:38;;;;;;;31.33;16.80;;;7.20;25.30;;;;;;7390644;19;20070;-69
2022/11/30 11:05:18;;;;;;;31.52;17.20;;;7.20;25.20;;;;;;7393341;19;20022;-69
2022/11/30 11:07:59;;;;;;;28.40;16.02;;;7.10;23.60;;;;;;7389967;19;20015;-69
2022/11/30 11:10:37;;;;;;;29.80;17.77;;;7.10;24.00;;;;;;7387187;19;20018;-69
2022/11/30 11:15:59;;;;;;;26.30;14.90;;;7.10;22.80;;;;;;7390886;19;20119;-69
2022/11/30 11:18:30;;;;;;;28.42;16.80;;;7.10;22.80;;;;;;7392384;19;20010;-69
2022/11/30 11:21:06;;;;;;;27.70;16.63;;;7.10;22.90;;;;;;7385887;19;20343;-69
2022/11/30 11:23:43;;;;;;;27.65;16.65;;;7.30;23.70;;;;;;7391565;19;20015;-69
2022/11/30 11:26:19;;;;;;;27.13;16.48;;;7.20;21.00;;;;;;7393631;19;20355;-70
2022/11/30 11:28:51;;;;;;;42.47;23.23;;;7.20;21.50;;;;;;7390828;19;20011;-69
2022/11/30 11:31:34;;;;;;;31.25;18.00;;;7.20;22.20;;;;;;7388775;19;20015;-70
2022/11/30 11:34:08;;;;;;;28.38;14.95;;;7.00;22.90;;;;;;7391024;19;20022;-69
2022/11/30 11:36:38;;;;;;;26.27;16.15;;;7.00;22.70;;;;;;7390838;19;20022;-69
2022/11/30 11:39:27;;;;;;;25.95;15.55;;;7.00;23.30;;;;;;7391423;19;20404;-69
2022/11/30 11:41:59;;;;;;;29.00;16.33;;;7.10;23.70;;;;;;7392009;19;20018;-70
2022/11/30 11:44:30;;;;;;;26.85;15.77;;;7.10;23.00;;;;;;7390295;19;20015;-70
2022/11/30 11:47:02;;;;;;;26.40;16.15;;;7.30;22.30;;;;;;7391616;19;20014;-70
2022/11/30 11:49:36;;;;;;;29.17;15.98;;;7.20;21.40;;;;;;7384535;19;20039;-70
2022/11/30 11:52:08;;;;;;;27.00;16.17;;;7.20;21.10;;;;;;7390817;19;20188;-70
2022/11/30 11:54:43;;;;;;;26.45;15.43;;;7.20;21.00;;;;;;7388665;19;20474;-69
2022/11/30 11:57:16;;;;;;;24.02;14.63;;;7.20;21.00;;;;;;7389027;19;20437;-70
2022/11/30 11:59:51;;;;;;;26.38;14.38;;;7.10;20.90;;;;;;7382831;19;20014;-69
2022/11/30 12:02:30;;;;;;;31.25;15.77;;;7.10;21.00;;;;;;7387448;19;20015;-69
2022/11/30 12:05:06;;;;;;;23.88;14.13;;;7.20;22.00;;;;;;7388046;19;20014;-70
2022/11/30 12:07:43;;;;;;;26.45;14.75;;;7.10;22.30;;;;;;7389635;19;20014;-70
2022/11/30 12:10:27;;;;;;;21.13;13.15;;;7.10;22.30;;;;;;7382190;19;20038;-70
2022/11/30 12:13:20;;;;;;;21.88;13.65;;;7.20;20.50;;;;;;7390282;19;20016;-69
2022/11/30 12:16:03;;;;;;;24.63;14.13;;;7.20;20.40;;;;;;7386376;19;20014;-70
2022/11/30 12:18:39;;;;;;;22.15;14.13;;;7.20;18.70;;;;;;7389180;19;20018;-70
2022/11/30 12:21:16;;;;;;;21.90;13.02;;;7.20;18.20;;;;;;7386813;19;20021;-70
2022/11/30 12:24:01;;;;;;;21.17;13.20;;;7.20;17.50;;;;;;7390652;19;20344;-70
2022/11/30 12:26:39;;;;;;;19.83;12.02;;;7.20;17.40;;;;;;7384079;19;20035;-69
2022/11/30 12:29:21;;;;;;;23.52;14.13;;;7.10;16.30;;;;;;7386257;19;20034;-70
2022/11/30 12:32:08;;;;;;;20.73;11.65;;;7.10;17.50;;;;;;7383917;19;20481;-71
2022/11/30 12:34:51;;;;;;;18.85;12.27;;;7.00;13.80;;;;;;7386962;19;20011;-71
2022/11/30 12:37:35;;;;;;;18.55;11.80;;;7.10;15.80;;;;;;7387600;19;20042;-70
2022/11/30 12:40:17;;;;;;;22.30;13.30;;;7.10;14.90;;;;;;7384712;19;20018;-70
2022/11/30 12:42:58;;;;;;;22.05;12.75;;;7.30;15.10;;;;;;7390596;19;20110;-70
2022/11/30 12:45:33;;;;;;;19.95;12.48;;;7.20;14.70;;;;;;7384853;19;20368;-70
2022/11/30 12:48:08;;;;;;;23.70;13.88;;;7.10;15.60;;;;;;7388722;19;20085;-71
2022/11/30 12:50:47;;;;;;;22.85;13.80;;;7.20;16.50;;;;;;7384601;19;20018;-70
2022/11/30 12:53:25;;;;;;;24.55;13.90;;;7.20;16.30;;;;;;7386547;19;20454;-70
2022/11/30 12:56:04;;;;;;;23.08;14.07;;;7.20;15.80;;;;;;7380262;19;20016;-71
2022/11/30 12:58:46;;;;;;;24.40;13.70;;;7.10;16.70;;;;;;7386852;19;20018;-71
2022/11/30 13:01:33;;;;;;;20.58;13.18;;;7.20;17.10;;;;;;7381095;19;20014;-70
2022/11/30 13:04:09;;;;;;;22.13;13.13;;;7.20;17.50;;;;;;7387184;19;20474;-70
2022/11/30 13:06:42;;;;;;;24.27;14.35;;;7.10;17.70;;;;;;7387149;19;20013;-71
2022/11/30 13:09:18;;;;;;;24.60;14.25;;;7.10;19.70;;;;;;7384591;19;20585;-71
2022/11/30 13:11:54;;;;;;;25.65;13.90;;;7.10;20.50;;;;;;7386731;19;20053;-71
2022/11/30 13:14:28;;;;;;;21.90;13.93;;;7.00;19.50;;;;;;7387158;19;20027;-71